createdAt,value
2018-07-05T00:02:28.626Z,98429.83
2018-07-05T00:05:08.184Z,98432.83
2018-07-05T00:07:47.618Z,98435.55
2018-07-05T00:10:27.092Z,98426.73
2018-07-05T00:13:06.568Z,98425.58
2018-07-05T00:15:45.860Z,98413.08
2018-07-05T00:18:25.140Z,98418.87
2018-07-05T00:21:04.515Z,98413.30
2018-07-05T00:23:44.052Z,98415.52
2018-07-05T00:26:23.343Z,98415.62
2018-07-05T00:29:02.671Z,98427.50
2018-07-05T00:31:42.132Z,98420.44
2018-07-05T00:34:21.652Z,98428.23
2018-07-05T00:37:01.189Z,98432.07
2018-07-05T00:39:40.776Z,98435.77
2018-07-05T00:42:20.241Z,98433.11
2018-07-05T00:45:00.521Z,98436.54
2018-07-05T00:47:40.048Z,98431.64
2018-07-05T00:50:19.652Z,98435.43
2018-07-05T00:52:59.040Z,98433.59
2018-07-05T00:55:38.596Z,98418.69
2018-07-05T00:58:17.866Z,98411.84
2018-07-05T01:00:57.284Z,98407.79
2018-07-05T01:03:36.817Z,98404.59
2018-07-05T01:06:16.310Z,98404.98
2018-07-05T01:08:55.825Z,98411.30
2018-07-05T01:11:35.260Z,98411.33
2018-07-05T01:14:14.649Z,98418.20
2018-07-05T01:16:54.105Z,98412.06
2018-07-05T01:19:33.651Z,98421.89
2018-07-05T01:22:13.068Z,98416.20
2018-07-05T01:24:52.545Z,98419.52
2018-07-05T01:27:36.382Z,98422.48
2018-07-05T01:30:16.334Z,98428.80
2018-07-05T01:32:55.832Z,98428.80
2018-07-05T01:35:35.594Z,98432.14
2018-07-05T01:38:15.240Z,98430.81
2018-07-05T01:40:54.728Z,98433.28
2018-07-05T01:43:33.956Z,98434.05
2018-07-05T01:46:13.476Z,98433.70
2018-07-05T01:48:52.895Z,98440.05
2018-07-05T01:51:33.529Z,98442.50
2018-07-05T01:54:13.103Z,98445.83
2018-07-05T01:56:52.541Z,98437.14
2018-07-05T01:59:31.962Z,98434.72
2018-07-05T02:02:11.269Z,98437.28
2018-07-05T02:04:50.729Z,98442.79
2018-07-05T02:07:30.188Z,98446.94
2018-07-05T02:10:09.620Z,98449.73
2018-07-05T02:12:49.170Z,98449.05
2018-07-05T02:15:28.645Z,98445.42
2018-07-05T02:18:08.055Z,98443.07
2018-07-05T02:20:47.384Z,98441.52
2018-07-05T02:23:26.591Z,98441.52
2018-07-05T02:26:06.012Z,98439.98
2018-07-05T02:28:45.504Z,98434.98
2018-07-05T02:31:24.907Z,98440.88
2018-07-05T02:34:11.067Z,98442.69
2018-07-05T02:36:50.536Z,98441.39
2018-07-05T02:39:35.492Z,98434.48
2018-07-05T02:42:15.204Z,98435.77
2018-07-05T02:44:55.079Z,98432.17
2018-07-05T02:47:34.714Z,98433.34
2018-07-05T02:50:14.552Z,98438.00
2018-07-05T02:52:54.039Z,98429.37
2018-07-05T02:55:33.441Z,98426.41
2018-07-05T02:58:12.948Z,98425.42
2018-07-05T03:00:52.472Z,98424.45
2018-07-05T03:03:32.053Z,98412.34
2018-07-05T03:06:11.376Z,98410.52
2018-07-05T03:08:50.788Z,98407.87
2018-07-05T03:11:30.172Z,98400.70
2018-07-05T03:14:09.568Z,98401.84
2018-07-05T03:16:48.932Z,98397.19
2018-07-05T03:19:28.370Z,98397.49
2018-07-05T03:22:07.864Z,98402.20
2018-07-05T03:24:47.335Z,98406.67
2018-07-05T03:27:26.817Z,98407.46
2018-07-05T03:30:06.245Z,98401.05
2018-07-05T03:32:45.766Z,98402.38
2018-07-05T03:35:25.404Z,98410.41
2018-07-05T03:38:04.763Z,98410.09
2018-07-05T03:40:44.143Z,98407.28
2018-07-05T03:43:23.508Z,98401.42
2018-07-05T03:46:02.997Z,98401.61
2018-07-05T03:48:42.534Z,98398.48
2018-07-05T03:51:21.830Z,98407.20
2018-07-05T03:54:01.491Z,98419.28
2018-07-05T03:56:40.912Z,98414.48
2018-07-05T03:59:20.295Z,98418.86
2018-07-05T04:01:59.817Z,98417.41
2018-07-05T04:04:39.661Z,98417.55
2018-07-05T04:07:19.312Z,98419.27
2018-07-05T04:09:58.911Z,98422.56
2018-07-05T04:12:38.255Z,98422.78
2018-07-05T04:15:17.697Z,98427.47
2018-07-05T22:02:48.783Z,98675.33
2018-07-05T22:05:28.272Z,98684.64
2018-07-05T22:08:07.855Z,98681.64
2018-07-05T22:10:47.301Z,98689.21
2018-07-05T22:13:26.641Z,98694.92
2018-07-05T22:16:06.202Z,98687.61
2018-07-05T22:18:51.185Z,98688.75
2018-07-05T22:21:30.757Z,98692.41
2018-07-05T22:24:15.689Z,98690.21
2018-07-05T22:26:55.298Z,98686.86
2018-07-05T22:29:39.964Z,98692.69
2018-07-05T22:32:19.846Z,98695.89
2018-07-05T22:34:59.245Z,98696.05
2018-07-05T22:37:38.827Z,98696.05
2018-07-05T22:40:18.312Z,98696.07
2018-07-05T22:42:57.928Z,98697.05
2018-07-05T22:45:37.548Z,98695.60
2018-07-05T22:48:16.882Z,98694.77
2018-07-05T22:50:56.329Z,98695.30
2018-07-05T22:53:35.914Z,98701.77
2018-07-05T22:56:15.443Z,98697.79
2018-07-05T22:58:54.892Z,98690.98
2018-07-05T23:01:34.297Z,98700.44
2018-07-05T23:04:13.998Z,98697.78
2018-07-05T23:06:53.743Z,98693.41
2018-07-05T23:09:33.132Z,98693.41
2018-07-05T23:12:12.591Z,98695.20
2018-07-05T23:14:52.013Z,98696.27
2018-07-05T23:17:32.446Z,98690.59
2018-07-05T23:20:12.004Z,98685.75
2018-07-05T23:22:51.638Z,98689.42
2018-07-05T23:25:31.151Z,98685.52
2018-07-05T23:28:10.643Z,98685.52
2018-07-05T23:30:50.248Z,98679.73
2018-07-05T23:33:29.804Z,98684.00
2018-07-05T23:36:09.912Z,98687.50
2018-07-05T23:38:49.400Z,98685.14
2018-07-05T23:41:28.936Z,98686.77
2018-07-05T23:44:08.308Z,98684.27
2018-07-05T23:46:47.601Z,98684.98
2018-07-05T23:49:26.989Z,98680.86
2018-07-05T23:52:06.465Z,98679.22
2018-07-05T23:54:46.000Z,98683.22
2018-07-05T23:57:25.523Z,98688.05
